sensor_id;sensor_type;location;lat;lon;timestamp;P1;durP1;ratioP1;P2;durP2;ratioP2
77571;SDS011;67214;47.454;18.966;2023-09-12T00:00:33;11.88;;;7.60;;
77571;SDS011;67214;47.454;18.966;2023-09-12T00:03:01;13.38;;;7.55;;
77571;SDS011;67214;47.454;18.966;2023-09-12T00:05:28;11.73;;;7.85;;
77571;SDS011;67214;47.454;18.966;2023-09-12T00:07:56;14.93;;;8.13;;
77571;SDS011;67214;47.454;18.966;2023-09-12T00:10:23;12.78;;;7.92;;
77571;SDS011;67214;47.454;18.966;2023-09-12T00:12:51;15.63;;;7.60;;
77571;SDS011;67214;47.454;18.966;2023-09-12T00:15:20;10.43;;;7.33;;
77571;SDS011;67214;47.454;18.966;2023-09-12T00:17:47;18.07;;;7.50;;
77571;SDS011;67214;47.454;18.966;2023-09-12T00:20:15;11.73;;;8.10;;
77571;SDS011;67214;47.454;18.966;2023-09-12T00:22:42;11.85;;;7.67;;
77571;SDS011;67214;47.454;18.966;2023-09-12T00:25:09;14.03;;;8.03;;
77571;SDS011;67214;47.454;18.966;2023-09-12T00:27:37;20.62;;;8.73;;
77571;SDS011;67214;47.454;18.966;2023-09-12T00:30:05;15.03;;;7.80;;
77571;SDS011;67214;47.454;18.966;2023-09-12T00:32:32;11.43;;;7.53;;
77571;SDS011;67214;47.454;18.966;2023-09-12T00:35:00;13.85;;;8.35;;
77571;SDS011;67214;47.454;18.966;2023-09-12T00:37:27;15.00;;;8.10;;
77571;SDS011;67214;47.454;18.966;2023-09-12T00:39:55;10.65;;;7.72;;
77571;SDS011;67214;47.454;18.966;2023-09-12T00:42:24;15.78;;;7.80;;
77571;SDS011;67214;47.454;18.966;2023-09-12T00:44:54;12.00;;;7.37;;
77571;SDS011;67214;47.454;18.966;2023-09-12T00:47:21;11.00;;;7.65;;
77571;SDS011;67214;47.454;18.966;2023-09-12T00:49:50;13.90;;;8.08;;
77571;SDS011;67214;47.454;18.966;2023-09-12T00:52:19;14.33;;;8.58;;
77571;SDS011;67214;47.454;18.966;2023-09-12T00:54:48;13.28;;;8.10;;
77571;SDS011;67214;47.454;18.966;2023-09-12T00:57:15;14.33;;;7.65;;
77571;SDS011;67214;47.454;18.966;2023-09-12T00:59:43;9.53;;;7.22;;
77571;SDS011;67214;47.454;18.966;2023-09-12T01:02:11;13.40;;;7.15;;
77571;SDS011;67214;47.454;18.966;2023-09-12T01:04:38;12.20;;;7.72;;
77571;SDS011;67214;47.454;18.966;2023-09-12T01:07:06;11.30;;;7.03;;
77571;SDS011;67214;47.454;18.966;2023-09-12T01:09:34;15.68;;;8.35;;
77571;SDS011;67214;47.454;18.966;2023-09-12T01:12:02;17.35;;;8.48;;
77571;SDS011;67214;47.454;18.966;2023-09-12T01:14:30;12.30;;;8.35;;
77571;SDS011;67214;47.454;18.966;2023-09-12T01:16:58;11.60;;;6.97;;
77571;SDS011;67214;47.454;18.966;2023-09-12T01:19:28;14.35;;;7.80;;
77571;SDS011;67214;47.454;18.966;2023-09-12T01:27:51;12.65;;;7.47;;
77571;SDS011;67214;47.454;18.966;2023-09-12T01:30:21;10.95;;;7.50;;
77571;SDS011;67214;47.454;18.966;2023-09-12T01:32:51;12.43;;;8.23;;
77571;SDS011;67214;47.454;18.966;2023-09-12T01:35:19;12.75;;;7.62;;
77571;SDS011;67214;47.454;18.966;2023-09-12T01:37:47;10.93;;;8.20;;
77571;SDS011;67214;47.454;18.966;2023-09-12T01:40:14;11.68;;;7.42;;
77571;SDS011;67214;47.454;18.966;2023-09-12T01:42:45;12.10;;;7.10;;
77571;SDS011;67214;47.454;18.966;2023-09-12T01:45:17;11.08;;;7.97;;
77571;SDS011;67214;47.454;18.966;2023-09-12T01:47:45;17.60;;;8.00;;
77571;SDS011;67214;47.454;18.966;2023-09-12T01:50:14;9.65;;;7.05;;
77571;SDS011;67214;47.454;18.966;2023-09-12T01:52:43;10.70;;;7.17;;
77571;SDS011;67214;47.454;18.966;2023-09-12T01:55:11;12.55;;;7.20;;
77571;SDS011;67214;47.454;18.966;2023-09-12T01:57:41;12.80;;;8.20;;
77571;SDS011;67214;47.454;18.966;2023-09-12T02:00:27;13.05;;;7.53;;
77571;SDS011;67214;47.454;18.966;2023-09-12T02:02:54;15.55;;;8.05;;
77571;SDS011;67214;47.454;18.966;2023-09-12T02:05:22;11.80;;;7.80;;
77571;SDS011;67214;47.454;18.966;2023-09-12T02:07:49;10.98;;;7.67;;
77571;SDS011;67214;47.454;18.966;2023-09-12T02:10:17;14.20;;;7.17;;
77571;SDS011;67214;47.454;18.966;2023-09-12T02:12:44;13.08;;;7.15;;
77571;SDS011;67214;47.454;18.966;2023-09-12T02:15:12;14.43;;;7.80;;
77571;SDS011;67214;47.454;18.966;2023-09-12T02:17:40;11.95;;;7.67;;
77571;SDS011;67214;47.454;18.966;2023-09-12T02:20:08;9.90;;;7.37;;
77571;SDS011;67214;47.454;18.966;2023-09-12T02:22:36;10.18;;;7.83;;
77571;SDS011;67214;47.454;18.966;2023-09-12T02:25:04;11.97;;;7.90;;
77571;SDS011;67214;47.454;18.966;2023-09-12T02:27:33;13.93;;;7.75;;
77571;SDS011;67214;47.454;18.966;2023-09-12T02:30:01;12.60;;;8.15;;
77571;SDS011;67214;47.454;18.966;2023-09-12T02:32:28;13.15;;;7.78;;
77571;SDS011;67214;47.454;18.966;2023-09-12T02:34:56;9.95;;;7.67;;
77571;SDS011;67214;47.454;18.966;2023-09-12T02:37:24;10.05;;;7.67;;
77571;SDS011;67214;47.454;18.966;2023-09-12T02:39:51;10.60;;;7.83;;
77571;SDS011;67214;47.454;18.966;2023-09-12T02:42:19;11.05;;;7.40;;
77571;SDS011;67214;47.454;18.966;2023-09-12T02:44:46;12.95;;;8.20;;
77571;SDS011;67214;47.454;18.966;2023-09-12T02:47:14;10.72;;;7.83;;
77571;SDS011;67214;47.454;18.966;2023-09-12T02:49:41;14.13;;;7.75;;
77571;SDS011;67214;47.454;18.966;2023-09-12T02:52:09;9.88;;;7.80;;
77571;SDS011;67214;47.454;18.966;2023-09-12T02:54:36;11.68;;;8.00;;
77571;SDS011;67214;47.454;18.966;2023-09-12T02:57:04;10.50;;;7.33;;
77571;SDS011;67214;47.454;18.966;2023-09-12T02:59:31;13.05;;;7.97;;
77571;SDS011;67214;47.454;18.966;2023-09-12T03:01:58;9.80;;;6.95;;
77571;SDS011;67214;47.454;18.966;2023-09-12T03:04:26;12.33;;;7.80;;
77571;SDS011;67214;47.454;18.966;2023-09-12T03:06:54;10.13;;;6.85;;
77571;SDS011;67214;47.454;18.966;2023-09-12T03:09:21;10.55;;;7.67;;
77571;SDS011;67214;47.454;18.966;2023-09-12T03:11:49;14.03;;;7.78;;
77571;SDS011;67214;47.454;18.966;2023-09-12T03:14:17;13.00;;;8.50;;
77571;SDS011;67214;47.454;18.966;2023-09-12T03:16:44;10.82;;;7.42;;
77571;SDS011;67214;47.454;18.966;2023-09-12T03:19:12;12.53;;;7.90;;
77571;SDS011;67214;47.454;18.966;2023-09-12T03:21:39;14.60;;;8.38;;
77571;SDS011;67214;47.454;18.966;2023-09-12T03:24:07;12.45;;;8.58;;
77571;SDS011;67214;47.454;18.966;2023-09-12T03:26:35;11.55;;;7.42;;
77571;SDS011;67214;47.454;18.966;2023-09-12T03:29:03;17.30;;;9.35;;
77571;SDS011;67214;47.454;18.966;2023-09-12T03:31:30;10.58;;;8.15;;
77571;SDS011;67214;47.454;18.966;2023-09-12T03:33:58;12.68;;;8.73;;
77571;SDS011;67214;47.454;18.966;2023-09-12T03:36:25;13.62;;;8.10;;
77571;SDS011;67214;47.454;18.966;2023-09-12T03:38:53;13.32;;;8.30;;
77571;SDS011;67214;47.454;18.966;2023-09-12T03:41:20;14.60;;;7.47;;
77571;SDS011;67214;47.454;18.966;2023-09-12T03:43:49;11.70;;;7.70;;
77571;SDS011;67214;47.454;18.966;2023-09-12T03:46:18;17.07;;;8.10;;
77571;SDS011;67214;47.454;18.966;2023-09-12T03:48:46;13.90;;;8.55;;
77571;SDS011;67214;47.454;18.966;2023-09-12T03:51:14;13.55;;;8.13;;
77571;SDS011;67214;47.454;18.966;2023-09-12T03:53:41;13.60;;;8.38;;
77571;SDS011;67214;47.454;18.966;2023-09-12T03:56:09;10.75;;;8.30;;
77571;SDS011;67214;47.454;18.966;2023-09-12T03:58:38;11.60;;;8.08;;
77571;SDS011;67214;47.454;18.966;2023-09-12T04:01:05;14.40;;;8.23;;
77571;SDS011;67214;47.454;18.966;2023-09-12T04:03:33;14.07;;;8.58;;
77571;SDS011;67214;47.454;18.966;2023-09-12T04:06:00;14.55;;;7.80;;
77571;SDS011;67214;47.454;18.966;2023-09-12T04:08:28;13.03;;;8.90;;
77571;SDS011;67214;47.454;18.966;2023-09-12T04:10:55;12.88;;;8.45;;
77571;SDS011;67214;47.454;18.966;2023-09-12T04:13:23;13.00;;;8.10;;
77571;SDS011;67214;47.454;18.966;2023-09-12T04:15:50;15.58;;;8.40;;
77571;SDS011;67214;47.454;18.966;2023-09-12T04:18:17;12.95;;;8.38;;
77571;SDS011;67214;47.454;18.966;2023-09-12T04:20:45;11.22;;;8.45;;
77571;SDS011;67214;47.454;18.966;2023-09-12T04:23:12;15.83;;;8.63;;
77571;SDS011;67214;47.454;18.966;2023-09-12T04:25:42;12.23;;;8.03;;
77571;SDS011;67214;47.454;18.966;2023-09-12T04:28:11;13.93;;;8.95;;
77571;SDS011;67214;47.454;18.966;2023-09-12T04:30:39;13.50;;;8.33;;
77571;SDS011;67214;47.454;18.966;2023-09-12T04:33:06;17.70;;;9.50;;
77571;SDS011;67214;47.454;18.966;2023-09-12T04:35:34;12.78;;;9.13;;
77571;SDS011;67214;47.454;18.966;2023-09-12T04:38:02;11.22;;;8.83;;
77571;SDS011;67214;47.454;18.966;2023-09-12T04:40:29;17.75;;;8.60;;
77571;SDS011;67214;47.454;18.966;2023-09-12T04:42:57;12.85;;;8.23;;
77571;SDS011;67214;47.454;18.966;2023-09-12T04:45:24;12.93;;;8.73;;
77571;SDS011;67214;47.454;18.966;2023-09-12T04:47:52;14.33;;;8.53;;
77571;SDS011;67214;47.454;18.966;2023-09-12T04:50:19;19.02;;;9.13;;
77571;SDS011;67214;47.454;18.966;2023-09-12T04:52:46;16.70;;;9.43;;
77571;SDS011;67214;47.454;18.966;2023-09-12T04:55:14;15.68;;;8.68;;
77571;SDS011;67214;47.454;18.966;2023-09-12T04:57:41;16.15;;;8.68;;
77571;SDS011;67214;47.454;18.966;2023-09-12T05:00:09;16.95;;;8.43;;
77571;SDS011;67214;47.454;18.966;2023-09-12T05:02:37;15.18;;;8.50;;
77571;SDS011;67214;47.454;18.966;2023-09-12T05:05:05;13.70;;;9.33;;
77571;SDS011;67214;47.454;18.966;2023-09-12T05:07:32;16.95;;;8.15;;
77571;SDS011;67214;47.454;18.966;2023-09-12T05:10:00;10.35;;;8.05;;
77571;SDS011;67214;47.454;18.966;2023-09-12T05:12:29;11.50;;;8.45;;
77571;SDS011;67214;47.454;18.966;2023-09-12T05:14:56;15.75;;;8.60;;
77571;SDS011;67214;47.454;18.966;2023-09-12T05:17:24;11.10;;;8.18;;
77571;SDS011;67214;47.454;18.966;2023-09-12T05:19:51;15.05;;;8.50;;
77571;SDS011;67214;47.454;18.966;2023-09-12T05:22:19;17.32;;;8.40;;
77571;SDS011;67214;47.454;18.966;2023-09-12T05:24:46;16.55;;;10.08;;
77571;SDS011;67214;47.454;18.966;2023-09-12T05:27:15;16.52;;;8.43;;
77571;SDS011;67214;47.454;18.966;2023-09-12T05:29:42;16.00;;;8.63;;
77571;SDS011;67214;47.454;18.966;2023-09-12T05:32:09;14.07;;;8.98;;
77571;SDS011;67214;47.454;18.966;2023-09-12T05:34:37;15.00;;;9.20;;
77571;SDS011;67214;47.454;18.966;2023-09-12T05:37:04;17.20;;;10.03;;
77571;SDS011;67214;47.454;18.966;2023-09-12T05:39:32;17.00;;;9.55;;
77571;SDS011;67214;47.454;18.966;2023-09-12T05:41:59;18.20;;;10.55;;
77571;SDS011;67214;47.454;18.966;2023-09-12T05:44:27;14.28;;;9.98;;
77571;SDS011;67214;47.454;18.966;2023-09-12T05:46:54;14.10;;;9.25;;
77571;SDS011;67214;47.454;18.966;2023-09-12T05:49:22;13.25;;;9.20;;
77571;SDS011;67214;47.454;18.966;2023-09-12T05:51:49;20.82;;;10.60;;
77571;SDS011;67214;47.454;18.966;2023-09-12T05:54:17;15.70;;;9.63;;
77571;SDS011;67214;47.454;18.966;2023-09-12T05:56:45;16.75;;;9.90;;
77571;SDS011;67214;47.454;18.966;2023-09-12T05:59:13;15.98;;;10.08;;
77571;SDS011;67214;47.454;18.966;2023-09-12T06:01:41;25.85;;;10.30;;
77571;SDS011;67214;47.454;18.966;2023-09-12T06:04:08;14.83;;;9.25;;
77571;SDS011;67214;47.454;18.966;2023-09-12T06:06:36;14.85;;;9.03;;
77571;SDS011;67214;47.454;18.966;2023-09-12T06:09:04;14.60;;;8.85;;
77571;SDS011;67214;47.454;18.966;2023-09-12T06:11:31;18.37;;;9.70;;
77571;SDS011;67214;47.454;18.966;2023-09-12T06:13:59;14.80;;;9.30;;
77571;SDS011;67214;47.454;18.966;2023-09-12T06:16:26;14.95;;;10.05;;
77571;SDS011;67214;47.454;18.966;2023-09-12T06:18:55;14.60;;;10.10;;
77571;SDS011;67214;47.454;18.966;2023-09-12T06:21:22;18.85;;;9.40;;
77571;SDS011;67214;47.454;18.966;2023-09-12T06:24:00;19.27;;;9.55;;
77571;SDS011;67214;47.454;18.966;2023-09-12T06:26:20;17.62;;;9.58;;
77571;SDS011;67214;47.454;18.966;2023-09-12T06:28:48;14.58;;;9.48;;
77571;SDS011;67214;47.454;18.966;2023-09-12T06:31:15;13.90;;;9.40;;
77571;SDS011;67214;47.454;18.966;2023-09-12T06:33:43;13.68;;;8.58;;
77571;SDS011;67214;47.454;18.966;2023-09-12T06:36:10;12.85;;;8.48;;
77571;SDS011;67214;47.454;18.966;2023-09-12T06:38:37;16.50;;;8.45;;
77571;SDS011;67214;47.454;18.966;2023-09-12T06:41:05;15.83;;;9.13;;
77571;SDS011;67214;47.454;18.966;2023-09-12T06:43:32;15.32;;;8.28;;
77571;SDS011;67214;47.454;18.966;2023-09-12T06:46:00;19.77;;;9.43;;
77571;SDS011;67214;47.454;18.966;2023-09-12T06:48:27;18.87;;;9.10;;
77571;SDS011;67214;47.454;18.966;2023-09-12T06:50:54;18.65;;;8.85;;
77571;SDS011;67214;47.454;18.966;2023-09-12T06:53:22;19.00;;;8.73;;
77571;SDS011;67214;47.454;18.966;2023-09-12T06:55:49;17.07;;;7.87;;
77571;SDS011;67214;47.454;18.966;2023-09-12T06:58:17;21.35;;;9.43;;
77571;SDS011;67214;47.454;18.966;2023-09-12T07:00:44;17.77;;;9.33;;
77571;SDS011;67214;47.454;18.966;2023-09-12T07:03:12;19.35;;;9.00;;
77571;SDS011;67214;47.454;18.966;2023-09-12T07:05:40;21.62;;;9.08;;
77571;SDS011;67214;47.454;18.966;2023-09-12T07:08:08;18.35;;;9.63;;
77571;SDS011;67214;47.454;18.966;2023-09-12T07:10:37;17.60;;;9.75;;
77571;SDS011;67214;47.454;18.966;2023-09-12T07:13:06;14.38;;;8.65;;
77571;SDS011;67214;47.454;18.966;2023-09-12T07:15:35;19.25;;;8.65;;
77571;SDS011;67214;47.454;18.966;2023-09-12T07:18:02;16.97;;;9.08;;
77571;SDS011;67214;47.454;18.966;2023-09-12T07:20:32;19.40;;;9.60;;
77571;SDS011;67214;47.454;18.966;2023-09-12T07:23:01;19.92;;;9.10;;
77571;SDS011;67214;47.454;18.966;2023-09-12T07:25:29;15.13;;;9.23;;
77571;SDS011;67214;47.454;18.966;2023-09-12T07:27:56;19.17;;;8.83;;
77571;SDS011;67214;47.454;18.966;2023-09-12T07:30:23;15.18;;;7.78;;
77571;SDS011;67214;47.454;18.966;2023-09-12T07:32:51;19.45;;;8.58;;
77571;SDS011;67214;47.454;18.966;2023-09-12T07:35:18;15.58;;;8.63;;
77571;SDS011;67214;47.454;18.966;2023-09-12T07:37:48;14.20;;;8.55;;
77571;SDS011;67214;47.454;18.966;2023-09-12T07:40:15;14.65;;;7.85;;
77571;SDS011;67214;47.454;18.966;2023-09-12T07:42:42;11.38;;;8.40;;
77571;SDS011;67214;47.454;18.966;2023-09-12T07:45:10;16.75;;;8.35;;
77571;SDS011;67214;47.454;18.966;2023-09-12T07:47:38;13.88;;;7.87;;
77571;SDS011;67214;47.454;18.966;2023-09-12T07:50:06;15.90;;;8.55;;
77571;SDS011;67214;47.454;18.966;2023-09-12T07:52:33;13.72;;;8.53;;
77571;SDS011;67214;47.454;18.966;2023-09-12T07:55:01;14.90;;;7.75;;
77571;SDS011;67214;47.454;18.966;2023-09-12T07:57:29;16.32;;;8.20;;
77571;SDS011;67214;47.454;18.966;2023-09-12T07:59:57;12.78;;;8.70;;
77571;SDS011;67214;47.454;18.966;2023-09-12T08:02:24;12.30;;;8.33;;
77571;SDS011;67214;47.454;18.966;2023-09-12T08:04:52;17.70;;;7.78;;
77571;SDS011;67214;47.454;18.966;2023-09-12T08:07:19;14.25;;;8.30;;
77571;SDS011;67214;47.454;18.966;2023-09-12T08:09:51;15.93;;;7.97;;
77571;SDS011;67214;47.454;18.966;2023-09-12T08:12:23;14.03;;;8.43;;
77571;SDS011;67214;47.454;18.966;2023-09-12T08:14:53;15.80;;;8.48;;
77571;SDS011;67214;47.454;18.966;2023-09-12T08:17:21;21.68;;;8.25;;
77571;SDS011;67214;47.454;18.966;2023-09-12T08:19:49;19.82;;;8.60;;
77571;SDS011;67214;47.454;18.966;2023-09-12T08:22:17;17.52;;;8.90;;
77571;SDS011;67214;47.454;18.966;2023-09-12T08:24:45;16.45;;;8.60;;
77571;SDS011;67214;47.454;18.966;2023-09-12T08:27:12;13.10;;;9.10;;
77571;SDS011;67214;47.454;18.966;2023-09-12T08:29:40;13.85;;;8.75;;
77571;SDS011;67214;47.454;18.966;2023-09-12T08:32:09;15.35;;;8.68;;
77571;SDS011;67214;47.454;18.966;2023-09-12T08:34:36;20.23;;;9.50;;
77571;SDS011;67214;47.454;18.966;2023-09-12T08:37:04;16.45;;;8.80;;
77571;SDS011;67214;47.454;18.966;2023-09-12T08:39:39;21.05;;;9.25;;
77571;SDS011;67214;47.454;18.966;2023-09-12T08:42:04;23.92;;;10.28;;
77571;SDS011;67214;47.454;18.966;2023-09-12T08:44:33;17.85;;;9.38;;
77571;SDS011;67214;47.454;18.966;2023-09-12T08:47:00;18.30;;;10.63;;
77571;SDS011;67214;47.454;18.966;2023-09-12T08:49:31;15.72;;;10.43;;
77571;SDS011;67214;47.454;18.966;2023-09-12T08:52:01;17.52;;;10.00;;
77571;SDS011;67214;47.454;18.966;2023-09-12T08:54:29;17.67;;;9.65;;
77571;SDS011;67214;47.454;18.966;2023-09-12T08:56:58;19.62;;;10.10;;
77571;SDS011;67214;47.454;18.966;2023-09-12T08:59:29;15.35;;;10.03;;
77571;SDS011;67214;47.454;18.966;2023-09-12T09:02:00;15.75;;;10.18;;
77571;SDS011;67214;47.454;18.966;2023-09-12T09:04:29;17.45;;;9.75;;
77571;SDS011;67214;47.454;18.966;2023-09-12T09:07:00;14.47;;;9.40;;
77571;SDS011;67214;47.454;18.966;2023-09-12T09:09:29;15.83;;;9.80;;
77571;SDS011;67214;47.454;18.966;2023-09-12T09:11:58;16.23;;;9.45;;
77571;SDS011;67214;47.454;18.966;2023-09-12T09:14:25;15.43;;;9.38;;
77571;SDS011;67214;47.454;18.966;2023-09-12T09:16:53;16.12;;;8.65;;
77571;SDS011;67214;47.454;18.966;2023-09-12T09:19:20;16.12;;;9.48;;
77571;SDS011;67214;47.454;18.966;2023-09-12T09:21:47;15.90;;;8.45;;
77571;SDS011;67214;47.454;18.966;2023-09-12T09:24:16;12.45;;;6.92;;
77571;SDS011;67214;47.454;18.966;2023-09-12T09:26:47;11.03;;;6.15;;
77571;SDS011;67214;47.454;18.966;2023-09-12T09:31:47;13.22;;;6.10;;
77571;SDS011;67214;47.454;18.966;2023-09-12T09:34:17;11.20;;;6.08;;
77571;SDS011;67214;47.454;18.966;2023-09-12T09:36:48;12.50;;;6.72;;
77571;SDS011;67214;47.454;18.966;2023-09-12T09:39:22;12.20;;;6.30;;
77571;SDS011;67214;47.454;18.966;2023-09-12T09:41:55;12.90;;;6.25;;
77571;SDS011;67214;47.454;18.966;2023-09-12T09:44:24;11.40;;;5.90;;
77571;SDS011;67214;47.454;18.966;2023-09-12T09:46:54;15.03;;;7.20;;
77571;SDS011;67214;47.454;18.966;2023-09-12T09:49:23;19.10;;;7.83;;
77571;SDS011;67214;47.454;18.966;2023-09-12T09:51:50;10.45;;;6.33;;
77571;SDS011;67214;47.454;18.966;2023-09-12T09:54:19;13.05;;;6.12;;
77571;SDS011;67214;47.454;18.966;2023-09-12T09:56:53;8.58;;;5.62;;
77571;SDS011;67214;47.454;18.966;2023-09-12T09:59:23;11.55;;;6.15;;
77571;SDS011;67214;47.454;18.966;2023-09-12T10:01:57;11.85;;;6.37;;
77571;SDS011;67214;47.454;18.966;2023-09-12T10:04:23;12.90;;;6.37;;
77571;SDS011;67214;47.454;18.966;2023-09-12T10:06:52;11.60;;;6.65;;
77571;SDS011;67214;47.454;18.966;2023-09-12T10:09:23;10.80;;;5.72;;
77571;SDS011;67214;47.454;18.966;2023-09-12T10:11:52;16.25;;;6.85;;
77571;SDS011;67214;47.454;18.966;2023-09-12T10:14:22;11.43;;;5.92;;
77571;SDS011;67214;47.454;18.966;2023-09-12T10:16:51;15.10;;;6.10;;
77571;SDS011;67214;47.454;18.966;2023-09-12T10:19:24;14.00;;;6.15;;
77571;SDS011;67214;47.454;18.966;2023-09-12T10:22:56;10.03;;;5.78;;
77571;SDS011;67214;47.454;18.966;2023-09-12T10:24:50;14.03;;;6.35;;
77571;SDS011;67214;47.454;18.966;2023-09-12T10:27:20;12.37;;;6.00;;
77571;SDS011;67214;47.454;18.966;2023-09-12T10:29:49;9.60;;;6.15;;
77571;SDS011;67214;47.454;18.966;2023-09-12T10:32:18;9.25;;;6.50;;
77571;SDS011;67214;47.454;18.966;2023-09-12T10:34:47;16.62;;;7.28;;
77571;SDS011;67214;47.454;18.966;2023-09-12T10:37:15;10.88;;;6.10;;
77571;SDS011;67214;47.454;18.966;2023-09-12T10:39:45;13.40;;;6.28;;
77571;SDS011;67214;47.454;18.966;2023-09-12T10:42:13;12.55;;;6.05;;
77571;SDS011;67214;47.454;18.966;2023-09-12T10:44:44;9.88;;;6.12;;
77571;SDS011;67214;47.454;18.966;2023-09-12T10:47:13;11.50;;;6.45;;
77571;SDS011;67214;47.454;18.966;2023-09-12T10:49:43;8.40;;;5.42;;
77571;SDS011;67214;47.454;18.966;2023-09-12T10:52:10;13.13;;;6.17;;
77571;SDS011;67214;47.454;18.966;2023-09-12T10:54:40;12.50;;;6.28;;
77571;SDS011;67214;47.454;18.966;2023-09-12T10:57:08;14.35;;;6.30;;
77571;SDS011;67214;47.454;18.966;2023-09-12T11:02:29;10.10;;;6.05;;
77571;SDS011;67214;47.454;18.966;2023-09-12T11:04:58;9.78;;;6.45;;
77571;SDS011;67214;47.454;18.966;2023-09-12T11:07:34;11.85;;;5.80;;
77571;SDS011;67214;47.454;18.966;2023-09-12T11:12:45;11.35;;;5.45;;
77571;SDS011;67214;47.454;18.966;2023-09-12T11:15:17;12.43;;;6.78;;
77571;SDS011;67214;47.454;18.966;2023-09-12T11:17:47;9.25;;;6.20;;
77571;SDS011;67214;47.454;18.966;2023-09-12T11:20:19;12.13;;;6.05;;
77571;SDS011;67214;47.454;18.966;2023-09-12T11:22:48;10.82;;;5.78;;
77571;SDS011;67214;47.454;18.966;2023-09-12T11:30:23;10.10;;;5.97;;
77571;SDS011;67214;47.454;18.966;2023-09-12T11:32:51;10.65;;;6.53;;
77571;SDS011;67214;47.454;18.966;2023-09-12T11:35:24;13.75;;;6.35;;
77571;SDS011;67214;47.454;18.966;2023-09-12T11:37:56;9.63;;;6.08;;
77571;SDS011;67214;47.454;18.966;2023-09-12T11:40:47;11.40;;;6.70;;
77571;SDS011;67214;47.454;18.966;2023-09-12T11:43:01;13.75;;;6.50;;
77571;SDS011;67214;47.454;18.966;2023-09-12T11:45:29;11.45;;;6.35;;
77571;SDS011;67214;47.454;18.966;2023-09-12T11:47:58;12.58;;;6.40;;
77571;SDS011;67214;47.454;18.966;2023-09-12T11:50:37;12.30;;;6.50;;
77571;SDS011;67214;47.454;18.966;2023-09-12T11:53:04;10.20;;;5.72;;
77571;SDS011;67214;47.454;18.966;2023-09-12T11:58:12;11.22;;;6.03;;
77571;SDS011;67214;47.454;18.966;2023-09-12T12:00:45;7.25;;;5.40;;
77571;SDS011;67214;47.454;18.966;2023-09-12T12:16:39;10.60;;;5.58;;
77571;SDS011;67214;47.454;18.966;2023-09-12T12:19:08;14.50;;;6.28;;
77571;SDS011;67214;47.454;18.966;2023-09-12T12:21:45;16.42;;;6.33;;
77571;SDS011;67214;47.454;18.966;2023-09-12T12:24:13;10.55;;;5.58;;
77571;SDS011;67214;47.454;18.966;2023-09-12T12:26:41;11.90;;;6.12;;
77571;SDS011;67214;47.454;18.966;2023-09-12T12:29:10;10.58;;;5.47;;
77571;SDS011;67214;47.454;18.966;2023-09-12T12:31:39;9.65;;;5.40;;
77571;SDS011;67214;47.454;18.966;2023-09-12T12:34:06;11.15;;;5.10;;
77571;SDS011;67214;47.454;18.966;2023-09-12T12:36:40;12.58;;;5.97;;
77571;SDS011;67214;47.454;18.966;2023-09-12T12:39:10;9.95;;;5.55;;
77571;SDS011;67214;47.454;18.966;2023-09-12T12:41:37;12.05;;;5.75;;
77571;SDS011;67214;47.454;18.966;2023-09-12T12:44:05;16.37;;;5.45;;
77571;SDS011;67214;47.454;18.966;2023-09-12T12:46:32;14.10;;;6.55;;
77571;SDS011;67214;47.454;18.966;2023-09-12T12:49:00;14.58;;;6.17;;
77571;SDS011;67214;47.454;18.966;2023-09-12T12:51:28;12.78;;;5.95;;
77571;SDS011;67214;47.454;18.966;2023-09-12T12:54:02;13.25;;;5.47;;
77571;SDS011;67214;47.454;18.966;2023-09-12T12:56:27;12.90;;;6.22;;
77571;SDS011;67214;47.454;18.966;2023-09-12T12:58:56;17.80;;;5.42;;
77571;SDS011;67214;47.454;18.966;2023-09-12T13:01:35;13.03;;;5.47;;
77571;SDS011;67214;47.454;18.966;2023-09-12T13:04:07;12.53;;;5.33;;
77571;SDS011;67214;47.454;18.966;2023-09-12T13:06:35;14.95;;;5.92;;
77571;SDS011;67214;47.454;18.966;2023-09-12T13:09:03;13.20;;;6.33;;
77571;SDS011;67214;47.454;18.966;2023-09-12T13:11:32;13.48;;;5.15;;
77571;SDS011;67214;47.454;18.966;2023-09-12T13:14:01;15.88;;;6.10;;
77571;SDS011;67214;47.454;18.966;2023-09-12T13:16:32;15.95;;;5.40;;
77571;SDS011;67214;47.454;18.966;2023-09-12T13:19:00;14.20;;;6.00;;
77571;SDS011;67214;47.454;18.966;2023-09-12T13:21:27;10.15;;;4.47;;
77571;SDS011;67214;47.454;18.966;2023-09-12T13:23:56;14.33;;;6.03;;
77571;SDS011;67214;47.454;18.966;2023-09-12T13:26:24;18.85;;;6.70;;
77571;SDS011;67214;47.454;18.966;2023-09-12T13:28:52;16.27;;;6.22;;
77571;SDS011;67214;47.454;18.966;2023-09-12T13:31:19;16.55;;;6.15;;
77571;SDS011;67214;47.454;18.966;2023-09-12T13:33:47;11.93;;;6.15;;
77571;SDS011;67214;47.454;18.966;2023-09-12T13:36:14;11.22;;;4.72;;
77571;SDS011;67214;47.454;18.966;2023-09-12T13:38:41;13.35;;;5.87;;
77571;SDS011;67214;47.454;18.966;2023-09-12T13:41:09;14.43;;;5.95;;
77571;SDS011;67214;47.454;18.966;2023-09-12T13:43:36;18.05;;;5.72;;
77571;SDS011;67214;47.454;18.966;2023-09-12T13:46:04;14.13;;;6.08;;
77571;SDS011;67214;47.454;18.966;2023-09-12T13:48:33;14.87;;;7.00;;
77571;SDS011;67214;47.454;18.966;2023-09-12T13:51:00;23.75;;;6.33;;
77571;SDS011;67214;47.454;18.966;2023-09-12T13:53:28;14.40;;;5.85;;
77571;SDS011;67214;47.454;18.966;2023-09-12T13:55:55;9.85;;;5.33;;
77571;SDS011;67214;47.454;18.966;2023-09-12T14:40:52;11.22;;;5.25;;
77571;SDS011;67214;47.454;18.966;2023-09-12T14:43:20;17.55;;;6.00;;
77571;SDS011;67214;47.454;18.966;2023-09-12T14:45:49;21.33;;;6.12;;
77571;SDS011;67214;47.454;18.966;2023-09-12T14:48:17;14.58;;;5.58;;
77571;SDS011;67214;47.454;18.966;2023-09-12T14:50:45;18.42;;;5.78;;
77571;SDS011;67214;47.454;18.966;2023-09-12T14:53:16;78.25;;;12.20;;
77571;SDS011;67214;47.454;18.966;2023-09-12T14:55:44;72.67;;;11.08;;
77571;SDS011;67214;47.454;18.966;2023-09-12T14:58:12;15.80;;;6.42;;
77571;SDS011;67214;47.454;18.966;2023-09-12T15:00:41;16.80;;;6.17;;
77571;SDS011;67214;47.454;18.966;2023-09-12T15:03:09;14.23;;;5.53;;
77571;SDS011;67214;47.454;18.966;2023-09-12T15:05:38;14.07;;;5.85;;
77571;SDS011;67214;47.454;18.966;2023-09-12T15:08:05;18.30;;;5.92;;
77571;SDS011;67214;47.454;18.966;2023-09-12T15:10:33;16.05;;;6.33;;
77571;SDS011;67214;47.454;18.966;2023-09-12T15:13:02;13.43;;;5.87;;
77571;SDS011;67214;47.454;18.966;2023-09-12T15:15:30;17.45;;;6.03;;
77571;SDS011;67214;47.454;18.966;2023-09-12T15:17:57;19.42;;;6.40;;
77571;SDS011;67214;47.454;18.966;2023-09-12T15:20:26;19.55;;;6.28;;
77571;SDS011;67214;47.454;18.966;2023-09-12T15:22:54;13.35;;;5.55;;
77571;SDS011;67214;47.454;18.966;2023-09-12T15:25:22;14.70;;;6.00;;
77571;SDS011;67214;47.454;18.966;2023-09-12T15:27:50;18.52;;;5.90;;
77571;SDS011;67214;47.454;18.966;2023-09-12T15:30:17;14.75;;;6.00;;
77571;SDS011;67214;47.454;18.966;2023-09-12T15:32:45;16.93;;;6.67;;
77571;SDS011;67214;47.454;18.966;2023-09-12T15:35:13;15.18;;;5.95;;
77571;SDS011;67214;47.454;18.966;2023-09-12T15:37:41;11.97;;;6.33;;
77571;SDS011;67214;47.454;18.966;2023-09-12T15:40:09;17.23;;;6.20;;
77571;SDS011;67214;47.454;18.966;2023-09-12T15:42:37;10.85;;;5.80;;
77571;SDS011;67214;47.454;18.966;2023-09-12T15:45:06;13.45;;;6.97;;